Time;durP1;ratioP1;P1;durP2;ratioP2;P2;SDS_P1;SDS_P2;PMS_P1;PMS_P2;Temp;Humidity;BMP_temperature;BMP_pressure;BME280_temperature;BME280_humidity;BME280_pressure;Samples;Min_cycle;Max_cycle;Signal;HPM_P1;HPM_P2
2022/03/14 00:02:22;;;;;;;14.28;8.10;;;;;;;-1.57;68.95;101692.36;1764569;81;21251;-77
2022/03/14 00:05:31;;;;;;;17.12;7.78;;;;;;;-1.58;68.99;101690.63;1763080;81;21226;-77
2022/03/14 00:08:38;;;;;;;21.07;8.75;;;;;;;-1.60;69.10;101701.88;1764605;81;21196;-77
2022/03/14 00:11:44;;;;;;;15.00;8.48;;;;;;;-1.63;69.26;101696.66;1764340;81;21207;-83
2022/03/14 00:14:55;;;;;;;16.50;8.15;;;;;;;-1.64;69.45;101698.47;1763979;81;21731;-80
2022/03/14 00:18:03;;;;;;;17.20;8.23;;;;;;;-1.65;69.70;101699.85;1763274;81;21184;-82
2022/03/14 00:21:10;;;;;;;21.02;8.85;;;;;;;-1.68;69.66;101698.66;1762837;81;21219;-82
2022/03/14 00:24:18;;;;;;;19.00;9.03;;;;;;;-1.69;69.92;101708.52;1764411;81;21160;-76
2022/03/14 00:27:24;;;;;;;18.57;10.20;;;;;;;-1.68;70.30;101704.02;1763265;81;21195;-82
2022/03/14 00:30:30;;;;;;;16.10;9.03;;;;;;;-1.70;70.50;101701.86;1763045;80;21709;-76
2022/03/14 00:33:39;;;;;;;19.50;8.88;;;;;;;-1.70;70.65;101708.09;1764572;81;21152;-83
2022/03/14 00:36:45;;;;;;;14.87;7.83;;;;;;;-1.69;71.21;101713.02;1764482;81;21152;-82
2022/03/14 00:39:53;;;;;;;19.42;7.55;;;;;;;-1.72;70.03;101716.69;1764556;81;21156;-77
2022/03/14 00:43:03;;;;;;;18.82;8.95;;;;;;;-1.75;68.45;101717.27;1764740;81;21763;-83
2022/03/14 00:46:07;;;;;;;20.02;7.97;;;;;;;-1.76;68.15;101715.53;1764402;81;21263;-76
2022/03/14 00:49:14;;;;;;;14.35;7.17;;;;;;;-1.76;68.20;101728.95;1764539;81;21200;-82
2022/03/14 00:52:19;;;;;;;13.98;6.60;;;;;;;-1.79;68.57;101724.56;1763912;81;21220;-78
2022/03/14 00:55:24;;;;;;;14.10;7.55;;;;;;;-1.85;69.12;101719.47;1763995;81;21168;-76
2022/03/14 00:58:32;;;;;;;18.07;8.85;;;;;;;-1.87;69.47;101730.73;1758409;81;21772;-76
2022/03/14 01:01:37;;;;;;;15.28;7.00;;;;;;;-1.89;69.99;101728.56;1759406;81;21203;-76
2022/03/14 01:04:44;;;;;;;21.02;8.40;;;;;;;-1.88;70.35;101729.00;1760797;81;21223;-82
2022/03/14 01:07:49;;;;;;;14.80;7.62;;;;;;;-1.87;70.50;101732.08;1760311;81;21212;-77
2022/03/14 01:10:56;;;;;;;17.80;8.65;;;;;;;-1.86;70.86;101727.98;1760939;81;21665;-76
2022/03/14 01:14:02;;;;;;;17.77;7.37;;;;;;;-1.86;71.12;101736.03;1760959;81;21705;-76
2022/03/14 01:17:08;;;;;;;17.70;8.08;;;;;;;-1.87;71.44;101730.27;1759478;81;21582;-76
2022/03/14 01:20:14;;;;;;;15.50;7.60;;;;;;;-1.87;71.60;101725.37;1760875;81;21168;-76
2022/03/14 01:23:20;;;;;;;19.48;8.20;;;;;;;-1.87;71.77;101731.61;1760131;81;21214;-82
2022/03/14 01:26:25;;;;;;;17.75;7.62;;;;;;;-1.86;71.62;101727.11;1760155;81;21223;-76
2022/03/14 01:29:30;;;;;;;19.90;7.60;;;;;;;-1.86;71.56;101737.37;1761101;81;21162;-81
2022/03/14 01:32:37;;;;;;;12.98;7.62;;;;;;;-1.86;71.82;101741.39;1760962;81;21773;-81
2022/03/14 01:35:42;;;;;;;20.62;8.00;;;;;;;-1.87;72.10;101740.99;1760970;81;21156;-82
2022/03/14 01:38:48;;;;;;;17.32;7.90;;;;;;;-1.89;72.23;101738.83;1760905;81;21788;-82
2022/03/14 01:41:55;;;;;;;18.82;8.38;;;;;;;-1.90;72.39;101742.45;1761013;81;21226;-76
2022/03/14 01:44:47;;;;;;;14.45;6.70;;;;;;;-1.89;72.51;101738.83;1761040;81;21148;-76
2022/03/14 01:47:54;;;;;;;17.37;8.65;;;;;;;-1.89;72.50;101746.87;1761106;81;21203;-82
2022/03/14 01:51:00;;;;;;;18.42;8.13;;;;;;;-1.91;72.60;101742.52;1761030;81;21714;-81
2022/03/14 01:54:05;;;;;;;16.90;7.35;;;;;;;-1.89;72.59;101749.55;1761077;81;21199;-81
2022/03/14 01:57:13;;;;;;;21.97;8.63;;;;;;;-1.89;72.44;101742.84;1760492;81;21210;-76
2022/03/14 02:00:19;;;;;;;14.03;7.92;;;;;;;-1.88;72.54;101742.41;1761053;81;21167;-82
2022/03/14 02:03:25;;;;;;;18.57;7.50;;;;;;;-1.86;72.56;101744.08;1761240;81;21180;-76
2022/03/14 02:06:32;;;;;;;16.15;8.05;;;;;;;-1.85;72.59;101741.80;1760925;81;21219;-82
2022/03/14 02:09:38;;;;;;;18.73;7.87;;;;;;;-1.83;72.70;101743.96;1760976;81;21231;-76
2022/03/14 02:12:44;;;;;;;17.65;7.45;;;;;;;-1.80;72.84;101752.33;1761168;81;21200;-82
2022/03/14 02:15:50;;;;;;;14.85;6.92;;;;;;;-1.81;73.05;101749.25;1759629;81;21168;-76
2022/03/14 02:18:56;;;;;;;14.23;7.40;;;;;;;-1.84;73.17;101750.23;1761130;81;21720;-82
2022/03/14 02:21:57;;;;;;;15.35;7.65;;;;;;;-1.86;73.11;101756.61;1761204;81;21215;-82
2022/03/14 02:25:02;;;;;;;13.53;6.90;;;;;;;-1.85;73.12;101750.31;1761048;81;21780;-76
2022/03/14 02:28:12;;;;;;;14.58;6.75;;;;;;;-1.90;73.14;101753.17;1759847;81;21756;-76
2022/03/14 02:31:17;;;;;;;13.53;7.47;;;;;;;-1.92;72.86;101767.60;1761042;81;21769;-76
2022/03/14 02:34:23;;;;;;;16.05;8.20;;;;;;;-1.94;72.89;101761.41;1761117;81;21161;-76
2022/03/14 02:37:28;;;;;;;15.10;7.87;;;;;;;-1.89;72.65;101760.28;1761059;81;21211;-76
2022/03/14 02:40:34;;;;;;;16.45;7.40;;;;;;;-1.85;72.45;101758.36;1761099;81;22147;-82
2022/03/14 02:43:39;;;;;;;17.60;7.65;;;;;;;-1.86;72.12;101753.46;1761022;81;21721;-82
2022/03/14 02:46:45;;;;;;;17.95;8.15;;;;;;;-1.87;71.89;101750.38;1760976;81;21219;-82
2022/03/14 02:49:50;;;;;;;18.50;8.03;;;;;;;-1.88;71.91;101759.37;1761098;81;21195;-82
2022/03/14 02:52:56;;;;;;;19.90;7.97;;;;;;;-1.84;72.02;101762.31;1761088;81;21207;-82
2022/03/14 02:56:01;;;;;;;12.93;7.20;;;;;;;-1.82;72.04;101760.92;1761080;81;21199;-81
2022/03/14 02:59:10;;;;;;;14.83;7.10;;;;;;;-1.81;71.94;101760.85;1761262;81;21174;-82
2022/03/14 03:02:18;;;;;;;15.30;8.05;;;;;;;-1.81;71.95;101759.52;1761062;81;21235;-76
2022/03/14 03:05:23;;;;;;;19.10;8.53;;;;;;;-1.79;71.97;101771.52;1761106;81;21140;-82
2022/03/14 03:08:30;;;;;;;12.03;7.12;;;;;;;-1.80;72.11;101763.94;1761076;81;21235;-77
2022/03/14 03:11:35;;;;;;;19.40;7.95;;;;;;;-1.78;72.24;101764.37;1761091;81;21199;-82
2022/03/14 03:14:41;;;;;;;16.82;7.70;;;;;;;-1.84;72.16;101766.33;1761090;81;21207;-81
2022/03/14 03:17:46;;;;;;;20.50;9.30;;;;;;;-1.85;72.39;101765.94;1759578;80;21258;-76
2022/03/14 03:20:53;;;;;;;16.73;7.75;;;;;;;-1.84;72.55;101769.02;1761180;81;21187;-76
2022/03/14 03:23:58;;;;;;;11.70;7.22;;;;;;;-1.81;72.59;101768.90;1761086;81;21163;-81
2022/03/14 03:27:03;;;;;;;16.17;8.93;;;;;;;-1.78;72.54;101775.09;1761108;81;21733;-82
2022/03/14 03:30:09;;;;;;;17.35;7.92;;;;;;;-1.77;72.37;101776.84;1761094;81;21165;-82
2022/03/14 03:33:15;;;;;;;22.95;9.53;;;;;;;-1.78;72.29;101766.58;1761146;81;21200;-82
2022/03/14 03:36:21;;;;;;;22.85;9.13;;;;;;;-1.79;71.85;101776.88;1761078;81;21275;-76
2022/03/14 03:39:27;;;;;;;19.30;9.25;;;;;;;-1.78;71.65;101767.05;1761086;81;21168;-76
2022/03/14 03:42:33;;;;;;;21.50;8.85;;;;;;;-1.77;71.67;101769.66;1761061;81;21208;-76
2022/03/14 03:45:38;;;;;;;21.37;9.95;;;;;;;-1.77;71.78;101775.50;1761080;81;21200;-82
2022/03/14 03:48:44;;;;;;;19.25;9.95;;;;;;;-1.80;71.80;101777.81;1761065;81;21191;-75
2022/03/14 03:51:50;;;;;;;24.12;9.18;;;;;;;-1.76;71.68;101779.45;1761056;81;21230;-83
2022/03/14 03:54:55;;;;;;;20.20;9.85;;;;;;;-1.76;71.90;101783.94;1761143;81;21200;-76
2022/03/14 03:58:00;;;;;;;21.87;9.75;;;;;;;-1.76;72.20;101780.79;1761019;81;21183;-76
2022/03/14 04:01:08;;;;;;;16.90;9.95;;;;;;;-1.78;72.38;101784.02;1760343;81;21238;-76
2022/03/14 04:04:14;;;;;;;25.82;10.50;;;;;;;-1.81;72.68;101774.27;1763183;80;21219;-76
2022/03/14 04:07:23;;;;;;;30.35;9.75;;;;;;;-1.78;72.87;101776.44;1764468;81;21203;-82
2022/03/14 04:10:29;;;;;;;20.92;10.03;;;;;;;-1.80;72.90;101774.66;1764097;81;21773;-76
2022/03/14 04:13:35;;;;;;;22.48;10.55;;;;;;;-1.78;73.17;101781.80;1764422;81;21187;-80
2022/03/14 04:16:41;;;;;;;22.52;10.93;;;;;;;-1.76;73.37;101786.63;1764163;81;21264;-82
2022/03/14 04:19:48;;;;;;;23.30;10.28;;;;;;;-1.75;73.59;101781.66;1763098;81;21168;-76
2022/03/14 04:22:54;;;;;;;23.40;10.05;;;;;;;-1.76;74.04;101779.45;1763150;81;21207;-76
2022/03/14 04:25:59;;;;;;;19.87;9.58;;;;;;;-1.76;74.40;101785.28;1763951;81;21207;-76
2022/03/14 04:29:06;;;;;;;23.70;10.55;;;;;;;-1.75;74.63;101784.34;1763635;81;21207;-80
2022/03/14 04:32:12;;;;;;;23.45;11.15;;;;;;;-1.75;74.83;101789.23;1763790;81;21808;-76
2022/03/14 04:35:18;;;;;;;24.20;11.33;;;;;;;-1.76;75.09;101800.91;1764377;81;21160;-76
2022/03/14 04:38:24;;;;;;;31.17;12.23;;;;;;;-1.76;75.52;101804.06;1763118;81;21824;-76
2022/03/14 04:41:37;;;;;;;19.82;11.53;;;;;;;-1.77;75.75;101821.97;1763818;81;21199;-76
2022/03/14 04:44:38;;;;;;;24.63;13.68;;;;;;;-1.78;76.00;101813.52;1764532;81;21231;-82
2022/03/14 04:47:45;;;;;;;25.95;13.40;;;;;;;-1.76;76.37;101810.77;1763398;81;21820;-82
2022/03/14 04:50:51;;;;;;;29.52;15.80;;;;;;;-1.73;76.84;101824.07;1764388;81;21156;-76
2022/03/14 04:53:57;;;;;;;27.55;15.08;;;;;;;-1.71;77.39;101829.77;1764319;81;21196;-82
2022/03/14 04:57:04;;;;;;;31.68;17.35;;;;;;;-1.67;77.87;101822.47;1763539;81;21731;-76
2022/03/14 05:00:10;;;;;;;36.68;18.55;;;;;;;-1.62;78.19;101828.53;1763239;81;21168;-82
2022/03/14 05:03:15;;;;;;;35.48;16.02;;;;;;;-1.59;78.49;101834.66;1757699;80;21555;-82
2022/03/14 05:06:21;;;;;;;37.10;16.25;;;;;;;-1.52;78.85;101833.92;1760830;81;21274;-76
2022/03/14 05:09:27;;;;;;;41.02;19.20;;;;;;;-1.48;79.21;101834.69;1760232;81;21219;-78
2022/03/14 05:12:32;;;;;;;44.53;21.00;;;;;;;-1.43;79.37;101829.53;1759834;81;21497;-76
2022/03/14 05:15:39;;;;;;;48.50;23.15;;;;;;;-1.39;79.62;101830.28;1760834;81;21714;-76
2022/03/14 05:18:46;;;;;;;37.90;20.17;;;;;;;-1.36;79.84;101829.70;1760817;81;21171;-81
2022/03/14 05:21:53;;;;;;;39.30;19.20;;;;;;;-1.29;80.06;101834.33;1760554;81;21774;-78
2022/03/14 05:24:59;;;;;;;31.45;17.45;;;;;;;-1.23;80.45;101836.75;1759548;81;21224;-82
2022/03/14 05:28:04;;;;;;;27.98;14.63;;;;;;;-1.15;80.66;101843.16;1760768;81;21176;-76
2022/03/14 05:31:09;;;;;;;32.42;18.12;;;;;;;-1.10;80.97;101832.63;1761057;81;21156;-76
2022/03/14 05:34:15;;;;;;;42.15;17.55;;;;;;;-1.07;81.26;101835.19;1761152;81;21186;-76
2022/03/14 05:37:22;;;;;;;37.05;17.67;;;;;;;-1.02;81.48;101841.71;1761146;81;21204;-82
2022/03/14 05:40:27;;;;;;;35.73;17.70;;;;;;;-0.99;81.80;101837.53;1761127;81;21222;-82
2022/03/14 05:43:36;;;;;;;34.95;19.65;;;;;;;-0.95;81.95;101840.97;1760896;81;21737;-82
2022/03/14 05:46:40;;;;;;;33.83;18.67;;;;;;;-0.90;81.94;101838.48;1760487;81;21780;-82
2022/03/14 05:49:46;;;;;;;44.85;18.25;;;;;;;-0.83;81.79;101843.14;1773510;80;21137;-81
2022/03/14 05:52:51;;;;;;;30.92;15.70;;;;;;;-0.77;81.80;101838.36;1783015;80;21191;-82
2022/03/14 05:55:58;;;;;;;29.77;16.73;;;;;;;-0.72;81.86;101841.33;1792292;80;21763;-76
2022/03/14 05:59:03;;;;;;;33.85;18.00;;;;;;;-0.68;82.04;101838.91;1792248;80;21173;-76
2022/03/14 06:02:10;;;;;;;33.13;18.27;;;;;;;-0.63;82.34;101836.89;1792191;80;21577;-76
2022/03/14 06:05:16;;;;;;;28.12;16.52;;;;;;;-0.61;82.64;101840.37;1759852;80;21196;-76
2022/03/14 06:08:23;;;;;;;31.37;17.87;;;;;;;-0.58;82.94;101841.59;1733484;83;21170;-76
2022/03/14 06:11:28;;;;;;;32.63;16.70;;;;;;;-0.54;83.24;101841.86;1767468;80;21532;-76
2022/03/14 06:14:34;;;;;;;28.83;15.68;;;;;;;-0.48;83.42;101847.44;1759540;81;21160;-82
2022/03/14 06:17:42;;;;;;;33.95;16.73;;;;;;;-0.47;83.24;101852.77;1760965;81;21235;-76
2022/03/14 06:20:48;;;;;;;29.48;13.45;;;;;;;-0.43;82.88;101841.38;1761713;81;21180;-82
2022/03/14 06:23:54;;;;;;;29.35;15.25;;;;;;;-0.38;82.14;101846.08;1762043;81;21737;-82
2022/03/14 06:27:15;;;;;;;27.07;15.55;;;;;;;-0.32;81.95;101846.69;1774752;80;21223;-76
2022/03/14 06:30:24;;;;;;;28.10;14.83;;;;;;;-0.24;81.72;101850.83;1794747;80;21191;-82
2022/03/14 06:33:29;;;;;;;26.27;14.60;;;;;;;-0.17;80.96;101850.50;1794526;80;21495;-77
2022/03/14 06:36:36;;;;;;;29.48;13.95;;;;;;;-0.08;79.94;101855.93;1794452;80;21243;-82
2022/03/14 06:39:43;;;;;;;28.50;15.60;;;;;;;-0.01;79.07;101854.69;1794547;80;21627;-82
2022/03/14 06:42:52;;;;;;;26.20;13.53;;;;;;;0.07;77.43;101864.63;1792330;80;21176;-76
2022/03/14 06:45:57;;;;;;;23.07;12.75;;;;;;;0.13;76.82;101858.95;1791307;80;21180;-76
2022/03/14 06:49:04;;;;;;;20.90;12.95;;;;;;;0.20;75.29;101862.25;1792058;80;21737;-82
2022/03/14 06:52:10;;;;;;;26.70;13.18;;;;;;;0.31;74.87;101856.35;1790900;80;21651;-77
2022/03/14 06:55:17;;;;;;;20.23;12.95;;;;;;;0.40;72.61;101855.91;1792154;80;21164;-81
2022/03/14 06:58:22;;;;;;;21.70;12.53;;;;;;;0.47;71.26;101856.91;1792093;80;21176;-77
2022/03/14 07:01:30;;;;;;;18.35;10.40;;;;;;;0.52;69.36;101859.38;1791740;80;21219;-82
2022/03/14 07:04:36;;;;;;;20.85;10.50;;;;;;;0.56;68.99;101850.65;1791859;80;21812;-81
2022/03/14 07:07:42;;;;;;;18.87;9.90;;;;;;;0.60;67.58;101850.42;1781639;80;21169;-76
2022/03/14 07:10:48;;;;;;;15.32;8.65;;;;;;;0.65;66.76;101856.45;1773689;81;21593;-78
2022/03/14 07:13:54;;;;;;;16.93;9.78;;;;;;;0.71;65.99;101852.14;1770129;80;21169;-76
2022/03/14 07:16:59;;;;;;;12.50;8.05;;;;;;;0.83;66.08;101855.16;1768144;80;21168;-76
2022/03/14 07:19:58;;;;;;;16.32;7.92;;;;;;;0.90;64.05;101855.27;1751768;82;21197;-77
2022/03/14 07:23:07;;;;;;;15.10;8.10;;;;;;;0.94;62.74;101854.14;1751776;82;21205;-82
2022/03/14 07:26:14;;;;;;;16.70;8.88;;;;;;;0.95;62.38;101855.91;1757556;80;21141;-77
2022/03/14 07:29:20;;;;;;;14.28;8.60;;;;;;;0.98;62.51;101851.69;1767949;80;21739;-77
2022/03/14 07:32:25;;;;;;;12.75;8.58;;;;;;;1.00;61.02;101844.42;1768276;80;21188;-77
2022/03/14 07:35:31;;;;;;;17.23;9.10;;;;;;;1.00;61.37;101857.41;1764242;81;21153;-77
2022/03/14 07:38:36;;;;;;;18.35;9.93;;;;;;;1.03;61.65;101855.02;1763765;81;21169;-82
2022/03/14 07:41:41;;;;;;;16.37;8.40;;;;;;;1.06;61.16;101868.83;1763567;81;21780;-77
2022/03/14 07:44:48;;;;;;;17.02;9.83;;;;;;;1.01;61.04;101864.55;1763423;81;21757;-77
2022/03/14 07:47:53;;;;;;;20.77;9.88;;;;;;;1.02;61.38;101862.72;1763813;81;22068;-77
2022/03/14 07:50:53;;;;;;;16.85;9.93;;;;;;;1.03;60.48;101868.50;1762488;80;21172;-82
2022/03/14 07:53:58;;;;;;;18.67;9.48;;;;;;;1.01;60.22;101858.28;1764241;81;21806;-77
2022/03/14 07:57:04;;;;;;;12.35;7.85;;;;;;;0.95;59.34;101864.86;1763906;81;21196;-77
2022/03/14 08:00:15;;;;;;;10.05;6.17;;;;;;;0.84;57.84;101869.02;1763296;80;21168;-81
2022/03/14 08:03:21;;;;;;;11.83;7.17;;;;;;;0.76;57.28;101869.42;1763999;81;21200;-81
2022/03/14 08:06:25;;;;;;;12.75;7.12;;;;;;;0.75;57.81;101879.33;1764025;81;21177;-82
2022/03/14 08:09:32;;;;;;;8.60;5.65;;;;;;;0.72;57.58;101878.12;1781225;80;21669;-81
2022/03/14 08:12:38;;;;;;;13.38;6.40;;;;;;;0.68;57.30;101887.29;1780578;80;21188;-77
2022/03/14 08:15:44;;;;;;;10.18;6.62;;;;;;;0.64;58.61;101879.43;1779477;80;21137;-77
2022/03/14 08:18:51;;;;;;;16.00;8.20;;;;;;;0.63;59.50;101881.26;1783225;80;21192;-77
2022/03/14 08:21:58;;;;;;;10.85;7.42;;;;;;;0.63;60.40;101888.47;1783036;80;21160;-82
2022/03/14 08:25:04;;;;;;;9.20;6.50;;;;;;;0.59;60.81;101885.52;1783185;80;21133;-81
2022/03/14 08:28:10;;;;;;;11.45;7.42;;;;;;;0.52;61.44;101887.65;1783161;80;21817;-77
2022/03/14 08:31:15;;;;;;;21.17;12.88;;;;;;;0.44;62.34;101892.52;1783052;80;21185;-76
2022/03/14 08:34:21;;;;;;;27.82;13.35;;;;;;;0.34;65.18;101885.34;1781604;80;21694;-81
2022/03/14 08:37:26;;;;;;;36.90;17.77;;;;;;;0.28;67.13;101889.66;1784581;80;21216;-77
2022/03/14 08:40:35;;;;;;;26.07;15.32;;;;;;;0.20;69.07;101883.30;1757152;81;21821;-76
2022/03/14 08:43:41;;;;;;;25.37;13.35;;;;;;;0.17;69.77;101876.70;1753332;82;21177;-79
2022/03/14 08:46:47;;;;;;;18.40;9.75;;;;;;;0.22;68.90;101884.56;1754076;82;21185;-76
2022/03/14 08:49:54;;;;;;;16.45;9.33;;;;;;;0.28;67.24;101884.75;1754312;82;21726;-81
2022/03/14 08:53:00;;;;;;;17.67;10.28;;;;;;;0.28;66.40;101875.33;1753306;82;21185;-76
2022/03/14 08:56:12;;;;;;;15.20;8.73;;;;;;;0.33;66.06;101878.23;1754430;82;21166;-81
2022/03/14 08:59:17;;;;;;;13.80;7.78;;;;;;;0.40;66.54;101880.14;1759604;80;21126;-79
2022/03/14 09:02:24;;;;;;;11.12;6.85;;;;;;;0.48;64.69;101873.92;1765006;81;21177;-82
2022/03/14 09:05:30;;;;;;;10.35;6.40;;;;;;;0.56;63.35;101863.64;1780665;80;21141;-79
2022/03/14 09:08:37;;;;;;;7.87;5.70;;;;;;;0.63;63.28;101862.41;1783082;80;21153;-78
2022/03/14 09:11:44;;;;;;;12.05;5.70;;;;;;;0.72;61.42;101853.87;1700358;84;21223;-78
2022/03/14 09:14:51;;;;;;;9.53;5.15;;;;;;;0.82;59.13;101850.73;1780028;80;21715;-78
2022/03/14 09:18:01;;;;;;;7.78;4.72;;;;;;;0.87;58.29;101851.37;1778967;80;21180;-78
2022/03/14 09:21:06;;;;;;;6.40;4.60;;;;;;;0.97;57.57;101844.09;1780318;80;21674;-83
2022/03/14 09:24:21;;;;;;;8.48;5.60;;;;;;;1.05;57.72;101835.62;1778783;80;21149;-82
2022/03/14 09:27:26;;;;;;;7.78;5.05;;;;;;;1.13;56.56;101837.46;1782317;80;21149;-78
2022/03/14 09:30:32;;;;;;;11.38;5.67;;;;;;;1.30;56.63;101837.92;1792853;80;21251;-83
2022/03/14 09:33:30;;;;;;;8.88;5.10;;;;;;;1.40;55.20;101836.96;1792933;80;21176;-82
2022/03/14 09:36:23;;;;;;;7.92;5.45;;;;;;;1.48;55.36;101828.00;1792894;80;21199;-82
2022/03/14 09:39:29;;;;;;;7.95;5.00;;;;;;;1.49;54.86;101833.78;1792912;80;21718;-82
2022/03/14 09:42:35;;;;;;;9.63;5.22;;;;;;;1.47;54.68;101834.36;1792723;80;21179;-82
2022/03/14 09:45:42;;;;;;;12.47;5.80;;;;;;;1.47;54.33;101839.27;1760143;81;21169;-77
2022/03/14 09:48:53;;;;;;;7.62;5.28;;;;;;;1.41;53.91;101837.35;1759861;81;21769;-82
2022/03/14 09:51:58;;;;;;;11.63;6.25;;;;;;;1.33;55.17;101829.69;1759979;81;21184;-77
2022/03/14 09:55:04;;;;;;;7.90;5.47;;;;;;;1.40;53.75;101830.22;1759920;81;21181;-78
2022/03/14 09:58:10;;;;;;;12.28;6.20;;;;;;;1.51;54.54;101828.72;1724828;81;21236;-83
2022/03/14 10:01:15;;;;;;;9.70;6.67;;;;;;;1.53;54.29;101829.50;1759434;81;21193;-82
2022/03/14 10:04:22;;;;;;;14.03;7.80;;;;;;;1.59;56.14;101817.98;1759764;81;21177;-82
2022/03/14 10:07:28;;;;;;;17.75;7.67;;;;;;;1.70;52.96;101827.27;1752989;80;21160;-82
2022/03/14 10:10:41;;;;;;;12.25;7.45;;;;;;;1.91;53.10;101822.99;1738426;80;21219;-82
2022/03/14 10:13:46;;;;;;;18.48;9.43;;;;;;;2.10;52.81;101812.92;1731860;83;21777;-78
2022/03/14 10:16:56;;;;;;;17.27;9.48;;;;;;;2.15;52.45;101812.19;1754031;82;21184;-78
2022/03/14 10:20:08;;;;;;;17.73;8.15;;;;;;;2.14;52.38;101817.68;1733655;83;21176;-82
2022/03/14 10:23:14;;;;;;;14.75;8.43;;;;;;;2.07;51.86;101803.67;1763252;81;21180;-82
2022/03/14 10:26:24;;;;;;;16.12;9.60;;;;;;;2.03;51.94;101803.44;1761761;81;21180;-77
2022/03/14 10:29:31;;;;;;;16.17;9.87;;;;;;;1.93;52.28;101800.83;1732409;83;21181;-77
2022/03/14 10:32:39;;;;;;;17.37;9.68;;;;;;;1.93;52.28;101800.83;1732065;83;21899;-78
2022/03/14 10:35:48;;;;;;;18.27;9.78;;;;;;;1.83;52.37;101802.30;1732376;83;21746;-82
2022/03/14 10:38:56;;;;;;;15.20;9.25;;;;;;;1.78;52.94;101799.36;1704297;84;21186;-82
2022/03/14 10:42:15;;;;;;;15.70;9.98;;;;;;;1.82;53.25;101797.38;1704200;84;21851;-77
2022/03/14 10:45:27;;;;;;;18.70;9.65;;;;;;;1.88;54.08;101790.77;1704831;84;21552;-79
2022/03/14 10:48:50;;;;;;;18.82;9.95;;;;;;;1.92;53.47;101789.65;1704605;84;21787;-82
2022/03/14 10:52:07;;;;;;;18.05;8.50;;;;;;;1.89;53.36;101786.66;1704609;82;21793;-82
2022/03/14 10:55:18;;;;;;;16.40;8.88;;;;;;;1.78;53.56;101779.13;1703889;84;21223;-82
2022/03/14 10:58:28;;;;;;;12.33;7.37;;;;;;;1.65;53.51;101775.87;1704757;84;21207;-82
2022/03/14 11:01:34;;;;;;;16.12;8.15;;;;;;;1.58;53.82;101777.14;1703990;84;21220;-82
2022/03/14 11:05:05;;;;;;;13.10;8.00;;;;;;;1.53;54.83;101772.86;1704754;84;21212;-78
2022/03/14 11:08:33;;;;;;;10.43;7.37;;;;;;;1.47;55.27;101771.86;1725887;82;21212;-83
2022/03/14 11:11:41;;;;;;;14.20;8.35;;;;;;;1.46;55.18;101766.55;1745149;80;21777;-82
2022/03/14 11:14:46;;;;;;;18.00;8.43;;;;;;;1.49;54.74;101759.63;1757230;81;21208;-83
2022/03/14 11:17:53;;;;;;;12.93;8.23;;;;;;;1.53;54.24;101762.55;1761575;81;21184;-77
2022/03/14 11:21:02;;;;;;;11.68;8.38;;;;;;;1.55;54.22;101768.72;1762317;81;21176;-80
2022/03/14 11:24:09;;;;;;;16.27;8.45;;;;;;;1.56;53.74;101763.75;1760840;81;21160;-82
2022/03/14 11:27:15;;;;;;;15.10;8.68;;;;;;;1.54;53.52;101766.98;1761579;81;21243;-81
2022/03/14 11:30:22;;;;;;;18.15;10.32;;;;;;;1.54;54.64;101758.42;1755975;81;21224;-81
2022/03/14 11:33:29;;;;;;;15.15;8.33;;;;;;;1.57;55.20;101764.14;1762240;81;21184;-76
2022/03/14 11:36:22;;;;;;;14.03;8.83;;;;;;;1.54;55.23;101761.59;1762356;81;21558;-76
2022/03/14 11:39:27;;;;;;;;;;;;;;;1.44;55.01;101769.31;1764412;81;21157;-76
2022/03/14 11:42:33;;;;;;;13.88;9.25;;;;;;;1.41;55.96;101763.20;1761232;81;20208;-81
2022/03/14 11:45:40;;;;;;;15.20;9.45;;;;;;;1.39;56.04;101767.82;1761707;81;21141;-81
2022/03/14 11:48:48;;;;;;;11.25;8.23;;;;;;;1.37;56.17;101757.61;1761282;81;21816;-81
2022/03/14 11:51:53;;;;;;;16.35;9.85;;;;;;;1.37;56.70;101759.83;1760992;81;21754;-81
2022/03/14 11:55:06;;;;;;;16.80;9.80;;;;;;;1.38;55.39;101751.25;1737657;81;21848;-81
2022/03/14 11:58:11;;;;;;;17.00;9.48;;;;;;;1.34;56.03;101747.84;1758258;81;21235;-81
2022/03/14 12:01:27;;;;;;;15.53;9.50;;;;;;;1.27;55.89;101750.01;1758800;81;21204;-81
2022/03/14 12:04:39;;;;;;;14.05;9.98;;;;;;;1.24;56.59;101755.55;1758599;81;21489;-81
2022/03/14 12:07:39;;;;;;;19.02;11.35;;;;;;;1.22;56.06;101753.43;1759367;81;21212;-81
2022/03/14 12:10:45;;;;;;;18.73;10.38;;;;;;;1.22;56.03;101752.53;1759555;81;21149;-80
2022/03/14 12:13:50;;;;;;;14.87;9.43;;;;;;;1.25;56.62;101746.50;1758231;81;21204;-76
2022/03/14 12:16:56;;;;;;;17.17;9.05;;;;;;;1.31;56.32;101748.48;1760188;81;21224;-76
2022/03/14 12:20:03;;;;;;;17.12;10.03;;;;;;;1.34;57.89;101746.98;1765434;81;21205;-82
2022/03/14 12:23:12;;;;;;;13.88;9.13;;;;;;;1.34;55.97;101739.75;1760039;81;21249;-82
2022/03/14 12:26:32;;;;;;;16.17;10.03;;;;;;;1.36;56.17;101741.01;1759697;81;21238;-78
2022/03/14 12:29:46;;;;;;;14.60;8.83;;;;;;;1.36;56.18;101745.92;1759699;81;21182;-77
2022/03/14 12:33:02;;;;;;;17.32;10.60;;;;;;;1.32;55.68;101740.33;1771228;80;21190;-81
2022/03/14 12:36:29;;;;;;;17.57;9.00;;;;;;;1.23;56.00;101741.69;1780578;80;21827;-82
2022/03/14 12:39:33;;;;;;;16.87;9.55;;;;;;;1.22;55.45;101752.08;1780924;80;21197;-82
2022/03/14 12:42:48;;;;;;;17.07;9.75;;;;;;;1.21;55.64;101753.01;1780802;80;21210;-78
2022/03/14 12:46:03;;;;;;;17.77;9.05;;;;;;;1.21;55.74;101739.53;1781353;80;21158;-83
2022/03/14 12:49:08;;;;;;;13.83;8.63;;;;;;;1.21;57.42;101736.83;1794042;80;21199;-77
2022/03/14 12:52:18;;;;;;;15.45;8.98;;;;;;;1.15;56.53;101729.56;1794181;80;21180;-82
2022/03/14 12:55:27;;;;;;;13.62;8.63;;;;;;;1.09;57.69;101730.77;1794503;80;21238;-82
2022/03/14 12:58:40;;;;;;;14.45;9.30;;;;;;;1.02;58.09;101726.16;1795308;80;21741;-77
2022/03/14 13:01:47;;;;;;;12.47;8.63;;;;;;;0.96;56.96;101726.97;1794988;80;21203;-83
2022/03/14 13:05:10;;;;;;;13.38;8.43;;;;;;;0.92;57.63;101717.30;1795891;80;21188;-82
2022/03/14 13:08:15;;;;;;;14.98;8.80;;;;;;;0.92;57.34;101710.56;1795871;80;21195;-77
2022/03/14 13:11:20;;;;;;;13.38;8.58;;;;;;;0.97;57.65;101715.23;1795899;80;21250;-83
2022/03/14 13:14:26;;;;;;;12.33;8.00;;;;;;;1.00;57.86;101716.43;1773723;80;21184;-83
2022/03/14 13:17:32;;;;;;;15.20;9.35;;;;;;;1.01;58.41;101708.73;1726418;83;21224;-79
2022/03/14 13:20:37;;;;;;;15.70;9.10;;;;;;;1.00;59.33;101709.69;1758793;81;21187;-82
2022/03/14 13:23:42;;;;;;;13.22;8.95;;;;;;;0.95;59.75;101712.63;1727004;83;21180;-82
2022/03/14 13:26:50;;;;;;;14.75;10.18;;;;;;;0.92;59.82;101712.78;1758659;81;21195;-82
2022/03/14 13:29:56;;;;;;;14.10;8.43;;;;;;;0.91;59.31;101711.52;1727303;83;21149;-82
2022/03/14 13:32:55;;;;;;;19.10;9.85;;;;;;;0.89;59.13;101709.37;1758909;81;21199;-77
2022/03/14 13:35:52;;;;;;;18.55;10.65;;;;;;;0.86;59.99;101696.95;1727095;83;21201;-83
2022/03/14 13:38:59;;;;;;;15.90;9.85;;;;;;;0.84;60.42;101700.66;1758974;81;21144;-78
2022/03/14 13:42:05;;;;;;;18.57;10.48;;;;;;;0.78;60.24;101705.02;1727215;83;21873;-77
2022/03/14 13:45:09;;;;;;;15.75;10.18;;;;;;;0.72;60.74;101708.44;1758875;81;21164;-77
2022/03/14 13:48:17;;;;;;;18.42;10.58;;;;;;;0.71;60.69;101704.00;1727148;83;21188;-83
2022/03/14 13:51:22;;;;;;;18.60;10.72;;;;;;;0.72;61.47;101707.09;1758698;81;21168;-82
2022/03/14 13:54:33;;;;;;;14.68;10.45;;;;;;;0.74;60.47;101707.87;1727222;83;21177;-76
2022/03/14 13:57:43;;;;;;;16.10;9.45;;;;;;;0.75;60.60;101712.77;1757572;81;21215;-82
2022/03/14 14:00:51;;;;;;;16.40;10.18;;;;;;;0.74;60.40;101717.30;1727323;83;21719;-77
2022/03/14 14:03:58;;;;;;;17.45;10.50;;;;;;;0.70;60.17;101704.93;1749143;81;21155;-78
2022/03/14 14:07:04;;;;;;;21.17;11.35;;;;;;;0.69;60.42;101703.67;1726723;83;21196;-77
2022/03/14 14:10:20;;;;;;;15.60;9.95;;;;;;;0.67;60.39;101706.45;1756939;81;21148;-82
2022/03/14 14:13:28;;;;;;;15.30;10.28;;;;;;;0.67;61.24;101702.89;1757598;81;21808;-82
2022/03/14 14:16:33;;;;;;;16.05;9.93;;;;;;;0.64;61.10;101697.66;1764434;81;21167;-77
2022/03/14 14:19:39;;;;;;;18.25;10.55;;;;;;;0.59;62.33;101697.89;1783658;80;21137;-78
2022/03/14 14:22:59;;;;;;;17.10;10.78;;;;;;;0.57;62.84;101703.84;1783414;80;21208;-83